Skip Navigation Links Skip Navigation Links

Current Weather

Sdr Stroemfjord, Greenland

For information only: do not use for flight planning or navigation.
Latest weather
Observation time Sunday, May 31, 2020 10:50 AM -02
Local time Sunday, May 31, 2020 11:45 AM -02
Flight conditions Conditions unknown
Winds
Wind direction West-Southwest (240°)
Wind speed 10 mph
Sky condition
Ceiling unlimited
Temperature 46°F
Dewpoint 32°F
Altimeter 29.85 in.Hg
Derived measurements
Relative humidity 57%
Wind chill 41°F
Density altitude -497 ft.
Remarks
Fully automated report.
METAR BGSF 311250Z AUTO 24009KT 9999NDV NCD 08/00 Q1011

Settings

Location code

InnerDrive.Weather 4.0.6770.0 Release CLR 4.0.30319.42000
Copyright ©2018 Inner Drive Technology. All rights reserved. Portions Copyright ©1986-2018 David Braverman.

Find weather

Site navigation


Skip Navigation Links

Place info

Page info

PayPal - The safer, easier way to pay online!

Return home.

Copyright ©2020 Inner Drive Technology. Purveyors of fine, hand-crafted computer software. Page printed 2020-05-31T13:45:09 UTC.